Time;durP1;ratioP1;P1;durP2;ratioP2;P2;SDS_P1;SDS_P2;PMS_P1;PMS_P2;Temp;Humidity;BMP_temperature;BMP_pressure;BME280_temperature;BME280_humidity;BME280_pressure;Samples;Min_cycle;Max_cycle;Signal;HPM_P1;HPM_P2
2023/01/21 00:00:51;;;;;;;;;;;-0.60;99.90;;;;;;5047330;28;19916;-61
2023/01/21 00:03:17;;;;;;;;;;;-0.70;99.90;;;;;;5048928;28;20007;-59
2023/01/21 00:05:42;;;;;;;;;;;-0.80;99.90;;;;;;5048052;28;19913;-60
2023/01/21 00:08:07;;;;;;;;;;;-0.90;99.90;;;;;;5048923;28;20003;-60
2023/01/21 00:10:33;;;;;;;;;;;-1.00;99.90;;;;;;5050349;28;20379;-60
2023/01/21 00:12:58;;;;;;;;;;;-1.00;99.90;;;;;;5051093;28;20349;-60
2023/01/21 00:15:24;;;;;;;;;;;-1.00;99.90;;;;;;5050314;28;19995;-60
2023/01/21 00:17:51;;;;;;;;;;;-1.00;99.90;;;;;;5050097;28;19944;-58
2023/01/21 00:20:16;;;;;;;;;;;-1.00;99.90;;;;;;5051378;28;19919;-60
2023/01/21 00:22:42;;;;;;;;;;;-1.00;99.90;;;;;;5053645;28;20024;-60
2023/01/21 00:25:07;;;;;;;;;;;-1.10;99.90;;;;;;5056793;28;19913;-59
2023/01/21 00:27:33;;;;;;;;;;;-1.10;99.90;;;;;;5054423;28;19960;-60
2023/01/21 00:29:58;;;;;;;;;;;-1.10;99.90;;;;;;5053974;28;19935;-60
2023/01/21 00:32:24;;;;;;;;;;;-1.20;99.90;;;;;;5053127;28;19920;-59
2023/01/21 00:34:49;;;;;;;;;;;-1.20;99.90;;;;;;5053699;28;19919;-60
2023/01/21 00:37:15;;;;;;;;;;;-1.20;99.90;;;;;;5059932;28;19916;-60
2023/01/21 00:39:41;;;;;;;;;;;-1.20;99.90;;;;;;5052836;28;19959;-60
2023/01/21 00:42:10;;;;;;;;;;;-1.30;99.90;;;;;;5053472;28;20028;-60
2023/01/21 00:44:38;;;;;;;;;;;-1.30;99.90;;;;;;5064243;28;19916;-62
2023/01/21 00:47:03;;;;;;;;;;;-1.20;99.90;;;;;;5054571;28;19912;-60
2023/01/21 00:49:29;;;;;;;;;;;-1.30;99.90;;;;;;5057269;28;20322;-60
2023/01/21 00:51:55;;;;;;;;;;;-1.20;99.90;;;;;;5058134;28;20302;-59
2023/01/21 00:54:20;;;;;;;;;;;-1.20;99.90;;;;;;5058397;28;20301;-60
2023/01/21 00:56:45;;;;;;;;;;;-1.20;99.90;;;;;;5056969;28;19994;-61
2023/01/21 00:59:11;;;;;;;;;;;-1.30;99.90;;;;;;5053401;28;19916;-60
2023/01/21 01:01:37;;;;;;;;;;;-1.30;99.90;;;;;;5057172;28;19916;-60
2023/01/21 01:04:04;;;;;;;;;;;-1.30;99.90;;;;;;5049633;28;19916;-58
2023/01/21 01:06:30;;;;;;;;;;;-1.20;99.90;;;;;;5056624;28;20007;-61
2023/01/21 01:08:57;;;;;;;;;;;-1.20;99.90;;;;;;5058272;28;20406;-62
2023/01/21 01:11:25;;;;;;;;;;;-1.20;99.90;;;;;;5057892;28;20003;-60
2023/01/21 01:13:54;;;;;;;;;;;-1.20;99.90;;;;;;5053443;28;19913;-59
2023/01/21 01:16:20;;;;;;;;;;;-1.20;99.90;;;;;;5051724;28;20349;-60
2023/01/21 01:18:45;;;;;;;;;;;-1.30;99.90;;;;;;5056118;28;19939;-61
2023/01/21 01:21:12;;;;;;;;;;;-1.30;99.90;;;;;;5054224;28;19920;-61
2023/01/21 01:23:37;;;;;;;;;;;-1.40;99.90;;;;;;5050108;28;19990;-60
2023/01/21 01:26:04;;;;;;;;;;;-1.50;99.90;;;;;;5054443;28;20350;-61
2023/01/21 01:28:30;;;;;;;;;;;-1.60;99.90;;;;;;5052849;28;19917;-61
2023/01/21 01:30:55;;;;;;;;;;;-1.60;99.90;;;;;;5058049;28;20271;-62
2023/01/21 01:33:21;;;;;;;;;;;-1.50;99.90;;;;;;5057174;28;20097;-60
2023/01/21 01:35:47;;;;;;;;;;;-1.50;99.90;;;;;;5052451;28;19928;-61
2023/01/21 01:38:18;;;;;;;;;;;-1.50;99.90;;;;;;5054772;28;20267;-61
2023/01/21 01:40:44;;;;;;;;;;;-1.50;99.90;;;;;;5057820;28;19925;-63
2023/01/21 01:43:21;;;;;;;;;;;-1.50;99.90;;;;;;5057134;28;20291;-59
2023/01/21 01:45:47;;;;;;;;;;;-1.50;99.90;;;;;;5050151;28;20379;-62
2023/01/21 01:48:15;;;;;;;;;;;-1.50;99.90;;;;;;5055102;28;19956;-59
2023/01/21 01:50:40;;;;;;;;;;;-1.60;99.90;;;;;;5052100;28;19912;-59
2023/01/21 01:53:07;;;;;;;;;;;-1.60;99.90;;;;;;5052472;28;19966;-61
2023/01/21 01:55:34;;;;;;;;;;;-1.60;99.90;;;;;;5053179;28;19912;-61
2023/01/21 01:58:00;;;;;;;;;;;-1.50;99.90;;;;;;5052623;28;19929;-63
2023/01/21 02:00:26;;;;;;;;;;;-1.50;99.90;;;;;;5051995;28;20292;-61
2023/01/21 02:05:37;;;;;;;;;;;-1.60;99.90;;;;;;5052411;28;19928;-62
2023/01/21 02:08:02;;;;;;;;;;;-1.60;99.90;;;;;;5045289;28;20298;-61
2023/01/21 02:10:30;;;;;;;;;;;-1.60;99.90;;;;;;5052568;28;19912;-60
2023/01/21 02:12:56;;;;;;;;;;;-1.70;99.90;;;;;;5053175;28;19974;-61
2023/01/21 02:15:23;;;;;;;;;;;-1.70;99.90;;;;;;5052032;28;19924;-62
2023/01/21 02:18:06;;;;;;;;;;;-1.70;99.90;;;;;;5051359;28;19917;-62
2023/01/21 02:20:31;;;;;;;;;;;-1.70;99.90;;;;;;5049355;28;19924;-63
2023/01/21 02:23:08;;;;;;;;;;;-1.80;99.90;;;;;;5052267;28;19913;-60
2023/01/21 02:25:37;;;;;;;;;;;-1.70;99.90;;;;;;5058016;28;19967;-61
2023/01/21 02:28:02;;;;;;;;;;;-1.70;99.90;;;;;;5051234;28;19916;-61
2023/01/21 02:30:46;;;;;;;;;;;-1.60;99.90;;;;;;5049478;28;19920;-60
2023/01/21 02:33:30;;;;;;;;;;;-1.60;99.90;;;;;;5049454;28;20007;-62
2023/01/21 02:36:02;;;;;;;;;;;-1.70;99.90;;;;;;5051552;28;19913;-63
2023/01/21 02:38:27;;;;;;;;;;;-1.70;99.90;;;;;;5048575;28;19913;-62
2023/01/21 02:40:59;;;;;;;;;;;-1.60;99.90;;;;;;5047756;28;19994;-62
2023/01/21 02:43:30;;;;;;;;;;;-1.60;99.90;;;;;;5050567;28;19913;-62
2023/01/21 02:46:07;;;;;;;;;;;-1.50;99.90;;;;;;5042414;28;19920;-62
2023/01/21 02:48:38;;;;;;;;;;;-1.50;99.90;;;;;;5054238;28;19912;-62
2023/01/21 02:51:04;;;;;;;;;;;-1.40;99.90;;;;;;5050690;28;19912;-62
2023/01/21 02:53:31;;;;;;;;;;;-1.50;99.90;;;;;;5054687;28;20015;-63
2023/01/21 02:55:57;;;;;;;;;;;-1.50;99.90;;;;;;5048485;28;20566;-62
2023/01/21 02:58:27;;;;;;;;;;;-1.60;99.90;;;;;;5057295;28;19912;-63
2023/01/21 03:01:10;;;;;;;;;;;-1.70;99.90;;;;;;5051188;28;19924;-63
2023/01/21 03:03:54;;;;;;;;;;;-1.70;99.90;;;;;;5052261;28;19917;-62
2023/01/21 03:06:36;;;;;;;;;;;-1.80;99.90;;;;;;5051095;28;19967;-62
2023/01/21 03:09:13;;;;;;;;;;;-1.90;99.90;;;;;;5063755;23;19929;-82
2023/01/21 03:11:42;;;;;;;;;;;-1.90;99.90;;;;;;5052998;28;19987;-82
2023/01/21 03:17:29;;;;;;;;;;;-1.90;99.90;;;;;;5052805;28;19924;-82
2023/01/21 03:19:58;;;;;;;;;;;-1.80;99.90;;;;;;5048991;28;20493;-81
2023/01/21 03:22:27;;;;;;;;;;;-1.70;99.90;;;;;;5047950;28;19960;-83
2023/01/21 03:24:54;;;;;;;;;;;-1.80;99.90;;;;;;5057564;28;19920;-80
2023/01/21 03:27:23;;;;;;;;;;;-1.70;99.90;;;;;;5064575;28;19966;-83
2023/01/21 03:29:51;;;;;;;;;;;-1.70;99.90;;;;;;5053489;28;19968;-80
2023/01/21 03:32:17;;;;;;;;;;;-1.70;99.90;;;;;;5050946;28;19944;-83
2023/01/21 03:34:46;;;;;;;;;;;-1.80;99.90;;;;;;5052862;28;20043;-82
2023/01/21 03:37:19;;;;;;;;;;;-1.80;99.90;;;;;;5048369;28;19909;-82
2023/01/21 03:39:52;;;;;;;;;;;-1.90;99.90;;;;;;5048300;28;19917;-83
2023/01/21 03:42:18;;;;;;;;;;;-2.00;99.90;;;;;;5049403;28;19913;-82
2023/01/21 03:44:44;;;;;;;;;;;-2.00;99.90;;;;;;5054227;28;19920;-84
2023/01/21 03:47:09;;;;;;;;;;;-2.00;99.90;;;;;;5053920;28;20251;-84
2023/01/21 03:50:01;;;;;;;;;;;-2.10;99.90;;;;;;5049161;28;20027;-83
2023/01/21 03:52:27;;;;;;;;;;;-2.10;99.90;;;;;;5051933;28;19913;-82
2023/01/21 03:54:53;;;;;;;;;;;-2.20;99.90;;;;;;5068633;28;19936;-82
2023/01/21 03:57:18;;;;;;;;;;;-2.20;99.90;;;;;;5055215;28;19956;-83
2023/01/21 03:59:44;;;;;;;;;;;-2.30;99.90;;;;;;5048626;28;19921;-83
2023/01/21 04:02:09;;;;;;;;;;;-2.20;99.90;;;;;;5052262;28;19924;-83
2023/01/21 04:04:35;;;;;;;;;;;-2.30;99.90;;;;;;5055364;28;19916;-80
2023/01/21 04:07:00;;;;;;;;;;;-2.20;99.90;;;;;;5052093;28;19913;-83
2023/01/21 04:09:26;;;;;;;;;;;-2.20;99.90;;;;;;5054964;28;19923;-82
2023/01/21 04:11:51;;;;;;;;;;;-2.20;99.90;;;;;;5054633;28;20342;-82
2023/01/21 04:14:17;;;;;;;;;;;-2.20;99.90;;;;;;5053378;28;19972;-83
2023/01/21 04:16:42;;;;;;;;;;;-2.10;99.90;;;;;;5053672;23;20478;-64
2023/01/21 04:19:08;;;;;;;;;;;-2.10;99.90;;;;;;5027297;28;19920;-61
2023/01/21 04:21:33;;;;;;;;;;;-2.10;99.90;;;;;;5025236;28;20395;-61
2023/01/21 04:23:58;;;;;;;;;;;-1.90;99.90;;;;;;5027047;28;19913;-64
2023/01/21 04:26:24;;;;;;;;;;;-1.80;99.90;;;;;;5027945;28;20498;-63
2023/01/21 04:28:49;;;;;;;;;;;-1.80;99.90;;;;;;5025983;28;19913;-64
2023/01/21 04:31:15;;;;;;;;;;;-1.90;99.90;;;;;;5029566;28;19975;-61
2023/01/21 04:33:40;;;;;;;;;;;-1.90;99.90;;;;;;5028719;28;20336;-61
2023/01/21 04:36:06;;;;;;;;;;;-1.90;99.90;;;;;;5024424;28;20049;-64
2023/01/21 04:38:31;;;;;;;;;;;-1.80;99.90;;;;;;5026165;28;19913;-63
2023/01/21 04:40:57;;;;;;;;;;;-1.80;99.90;;;;;;5027119;28;20034;-62
2023/01/21 04:43:22;;;;;;;;;;;-1.90;99.90;;;;;;5027351;28;19921;-61
2023/01/21 04:45:49;;;;;;;;;;;-2.00;99.90;;;;;;5026170;28;19916;-63
2023/01/21 04:48:15;;;;;;;;;;;-2.20;99.90;;;;;;5023248;28;19918;-62
2023/01/21 04:50:40;;;;;;;;;;;-2.20;99.90;;;;;;5028418;28;19921;-61
2023/01/21 04:53:05;;;;;;;;;;;-2.20;99.90;;;;;;5023570;28;20401;-62
2023/01/21 04:55:31;;;;;;;;;;;-2.10;99.90;;;;;;5021350;28;19921;-61
2023/01/21 04:57:56;;;;;;;;;;;-2.20;99.90;;;;;;5029161;28;19931;-62
2023/01/21 05:00:22;;;;;;;;;;;-2.20;99.90;;;;;;5025782;28;19997;-62
2023/01/21 05:02:47;;;;;;;;;;;-2.30;99.90;;;;;;5026875;28;19929;-61
2023/01/21 05:05:13;;;;;;;;;;;-2.40;99.90;;;;;;5023642;28;19917;-60
2023/01/21 05:07:38;;;;;;;;;;;-2.50;99.90;;;;;;5022127;28;19917;-61
2023/01/21 05:10:04;;;;;;;;;;;-2.30;99.90;;;;;;5032691;28;20394;-61
2023/01/21 05:12:29;;;;;;;;;;;-2.20;99.90;;;;;;5031693;28;20272;-61
2023/01/21 05:14:57;;;;;;;;;;;-2.10;99.90;;;;;;5031436;28;19948;-61
2023/01/21 05:17:23;;;;;;;;;;;-2.20;99.90;;;;;;5031088;28;19917;-60
2023/01/21 05:19:49;;;;;;;;;;;-2.40;99.90;;;;;;5026712;28;19971;-61
2023/01/21 05:22:15;;;;;;;;;;;-2.50;99.90;;;;;;5023962;28;19922;-61
2023/01/21 05:24:40;;;;;;;;;;;-2.40;99.90;;;;;;5023429;28;20405;-60
2023/01/21 05:27:06;;;;;;;;;;;-2.40;99.90;;;;;;5039072;28;19920;-61
2023/01/21 05:29:31;;;;;;;;;;;-2.40;99.90;;;;;;5023785;28;19913;-61
2023/01/21 05:31:57;;;;;;;;;;;-2.40;99.90;;;;;;5030834;28;20319;-61
2023/01/21 05:34:22;;;;;;;;;;;-2.50;99.90;;;;;;5028486;28;19921;-61
2023/01/21 05:36:48;;;;;;;;;;;-2.50;99.90;;;;;;5026004;28;19920;-61
2023/01/21 05:39:13;;;;;;;;;;;-2.60;99.90;;;;;;5027119;28;19928;-61
2023/01/21 05:41:39;;;;;;;;;;;-2.50;99.90;;;;;;5030538;28;19917;-61
2023/01/21 05:44:04;;;;;;;;;;;-2.60;99.90;;;;;;5032109;28;19919;-61
2023/01/21 05:46:30;;;;;;;;;;;-2.70;99.90;;;;;;5030131;28;19913;-61
2023/01/21 05:48:55;;;;;;;;;;;-2.70;99.90;;;;;;5031476;28;19920;-61
2023/01/21 05:51:21;;;;;;;;;;;-2.70;99.90;;;;;;5030450;28;20350;-61
2023/01/21 05:53:46;;;;;;;;;;;-2.80;99.90;;;;;;5032012;28;19992;-61
2023/01/21 05:56:11;;;;;;;;;;;-2.80;99.90;;;;;;5027037;28;19913;-61
2023/01/21 05:58:37;;;;;;;;;;;-2.80;99.90;;;;;;5030300;28;19921;-62
2023/01/21 06:01:02;;;;;;;;;;;-2.90;99.90;;;;;;5028003;28;20411;-62
2023/01/21 06:03:28;;;;;;;;;;;-2.80;99.90;;;;;;5028869;28;19913;-61
2023/01/21 06:05:53;;;;;;;;;;;-2.90;99.90;;;;;;5026187;28;19913;-62
2023/01/21 06:08:19;;;;;;;;;;;-2.80;99.90;;;;;;5045108;28;19960;-61
2023/01/21 06:10:44;;;;;;;;;;;-2.90;99.90;;;;;;5026406;28;19917;-61
2023/01/21 06:13:10;;;;;;;;;;;-2.90;99.90;;;;;;5028721;28;19925;-61
2023/01/21 06:15:36;;;;;;;;;;;-2.90;99.90;;;;;;5026848;28;20016;-61
2023/01/21 06:18:01;;;;;;;;;;;-2.90;99.90;;;;;;5029848;28;20375;-61
2023/01/21 06:20:30;;;;;;;;;;;-3.00;99.90;;;;;;5030559;28;19918;-61
2023/01/21 06:22:56;;;;;;;;;;;-3.00;99.90;;;;;;5029951;28;19917;-61
2023/01/21 06:25:21;;;;;;;;;;;-3.10;99.90;;;;;;5025946;28;20282;-61
2023/01/21 06:27:47;;;;;;;;;;;-3.10;99.90;;;;;;5029035;28;19913;-61
2023/01/21 06:30:12;;;;;;;;;;;-3.10;99.90;;;;;;5031262;28;19916;-61
2023/01/21 06:32:38;;;;;;;;;;;-3.10;99.90;;;;;;5037035;28;19992;-61
2023/01/21 06:35:03;;;;;;;;;;;-3.00;99.90;;;;;;5029063;28;20420;-61
2023/01/21 06:37:29;;;;;;;;;;;-3.10;99.90;;;;;;5030790;28;20449;-61
2023/01/21 06:39:54;;;;;;;;;;;-3.00;99.90;;;;;;5029990;28;19913;-61
2023/01/21 06:42:20;;;;;;;;;;;-3.00;99.90;;;;;;5026519;28;19917;-59
2023/01/21 06:44:45;;;;;;;;;;;-3.10;99.90;;;;;;5026167;28;21370;-60
2023/01/21 06:47:11;;;;;;;;;;;-3.00;99.90;;;;;;5030583;28;19952;-61
2023/01/21 06:49:37;;;;;;;;;;;-3.10;99.90;;;;;;5025450;28;19910;-61
2023/01/21 06:52:02;;;;;;;;;;;-3.10;99.90;;;;;;5020700;28;19992;-60
2023/01/21 06:54:28;;;;;;;;;;;-3.10;99.90;;;;;;5028042;28;20383;-61
2023/01/21 06:56:53;;;;;;;;;;;-3.10;99.90;;;;;;5025057;28;19922;-61
2023/01/21 06:59:19;;;;;;;;;;;-3.10;99.90;;;;;;5024157;28;19916;-61
2023/01/21 07:01:45;;;;;;;;;;;-3.20;99.90;;;;;;5023367;28;19913;-61
2023/01/21 07:04:10;;;;;;;;;;;-3.20;99.90;;;;;;5023639;28;20015;-61
2023/01/21 07:06:36;;;;;;;;;;;-3.10;99.90;;;;;;5027615;28;19917;-61
2023/01/21 07:09:02;;;;;;;;;;;-3.20;99.90;;;;;;5026558;28;19924;-62
2023/01/21 07:11:28;;;;;;;;;;;-3.30;99.90;;;;;;5020783;28;20004;-61
2023/01/21 07:13:53;;;;;;;;;;;-3.20;99.90;;;;;;5027654;28;20009;-62
2023/01/21 07:16:19;;;;;;;;;;;-3.30;99.90;;;;;;5027485;28;19924;-61
2023/01/21 07:18:44;;;;;;;;;;;-3.40;99.90;;;;;;5025583;28;19959;-62
2023/01/21 07:21:10;;;;;;;;;;;-3.30;99.90;;;;;;5027315;28;19951;-62
2023/01/21 07:23:35;;;;;;;;;;;-3.40;99.90;;;;;;5021902;28;19928;-61
2023/01/21 07:26:01;;;;;;;;;;;-3.30;99.90;;;;;;5023632;28;19917;-61
2023/01/21 07:28:26;;;;;;;;;;;-3.30;99.90;;;;;;5025151;28;19955;-61
2023/01/21 07:30:52;;;;;;;;;;;-3.20;99.90;;;;;;5025334;28;19913;-61
2023/01/21 07:33:17;;;;;;;;;;;-3.10;99.90;;;;;;5025774;28;19914;-64
2023/01/21 07:35:43;;;;;;;;;;;-3.20;99.90;;;;;;5024544;28;20390;-63
2023/01/21 07:38:08;;;;;;;;;;;-3.20;99.90;;;;;;5020831;28;19967;-64
2023/01/21 07:40:33;;;;;;;;;;;-3.10;99.90;;;;;;5029527;28;20299;-63
2023/01/21 07:42:59;;;;;;;;;;;-3.10;99.90;;;;;;5023708;28;19919;-63
2023/01/21 07:45:24;;;;;;;;;;;-3.10;99.90;;;;;;5027058;28;20011;-64
2023/01/21 07:47:50;;;;;;;;;;;-3.20;99.90;;;;;;5022044;28;19913;-63
2023/01/21 07:50:15;;;;;;;;;;;-3.10;99.90;;;;;;5025503;28;20496;-63
2023/01/21 07:52:41;;;;;;;;;;;-3.00;99.90;;;;;;5020521;28;21532;-64
2023/01/21 07:55:07;;;;;;;;;;;-2.90;99.90;;;;;;5026267;28;19914;-63
2023/01/21 07:57:32;;;;;;;;;;;-2.70;99.90;;;;;;5021387;28;19925;-64
2023/01/21 07:59:57;;;;;;;;;;;-2.70;99.90;;;;;;5024244;28;19968;-65
2023/01/21 08:02:23;;;;;;;;;;;-2.50;99.90;;;;;;5021836;28;19997;-63
2023/01/21 08:04:48;;;;;;;;;;;-2.70;99.90;;;;;;5017140;28;19921;-63
2023/01/21 08:07:14;;;;;;;;;;;-2.80;99.90;;;;;;5026160;28;20339;-63
2023/01/21 08:09:39;;;;;;;;;;;-2.80;99.90;;;;;;5027381;28;19966;-63
2023/01/21 08:12:05;;;;;;;;;;;-2.70;99.90;;;;;;5024698;28;19940;-64
2023/01/21 08:14:31;;;;;;;;;;;-2.70;99.90;;;;;;5025179;28;20333;-64
2023/01/21 08:16:57;;;;;;;;;;;-2.70;99.90;;;;;;5026980;28;19928;-63
2023/01/21 08:19:23;;;;;;;;;;;-2.60;99.90;;;;;;5025500;28;19913;-63
2023/01/21 08:21:49;;;;;;;;;;;-2.70;99.90;;;;;;5026775;28;19927;-63
2023/01/21 08:24:14;;;;;;;;;;;-2.60;99.90;;;;;;5041066;28;19920;-63
2023/01/21 08:26:40;;;;;;;;;;;-2.50;99.90;;;;;;5027399;28;19913;-64
2023/01/21 08:29:05;;;;;;;;;;;-2.60;99.90;;;;;;5024041;28;19913;-63
2023/01/21 08:31:31;;;;;;;;;;;-2.50;99.90;;;;;;5028749;28;19921;-63
2023/01/21 08:33:57;;;;;;;;;;;-2.40;99.90;;;;;;5019514;28;20290;-64
2023/01/21 08:36:22;;;;;;;;;;;-2.30;99.90;;;;;;5029287;28;19966;-64
2023/01/21 08:38:51;;;;;;;;;;;-2.20;99.90;;;;;;5028474;28;20007;-63
2023/01/21 08:41:17;;;;;;;;;;;-2.10;99.90;;;;;;5030265;28;19925;-63
2023/01/21 08:43:42;;;;;;;;;;;-2.00;99.90;;;;;;5047269;28;19920;-63
2023/01/21 08:46:07;;;;;;;;;;;-2.00;99.90;;;;;;5031733;28;19913;-62
2023/01/21 08:48:33;;;;;;;;;;;-1.70;99.90;;;;;;5032029;28;19913;-63
2023/01/21 08:50:59;;;;;;;;;;;-1.50;99.90;;;;;;5035355;28;20012;-63
2023/01/21 08:53:24;;;;;;;;;;;-1.40;99.90;;;;;;5028809;28;19920;-63
2023/01/21 08:55:50;;;;;;;;;;;-1.30;99.90;;;;;;5031961;28;19932;-63
2023/01/21 08:58:15;;;;;;;;;;;-1.10;99.90;;;;;;5029534;28;19914;-62
2023/01/21 09:00:41;;;;;;;;;;;-1.00;99.90;;;;;;5023879;28;19924;-63
2023/01/21 09:03:06;;;;;;;;;;;-0.80;99.90;;;;;;5032979;28;20507;-63
2023/01/21 09:05:32;;;;;;;;;;;-0.80;99.90;;;;;;5030032;28;20331;-62
2023/01/21 09:07:57;;;;;;;;;;;-0.60;99.90;;;;;;5027698;28;20334;-63
2023/01/21 09:13:08;;;;;;;;;;;-0.50;99.90;;;;;;5029165;28;19967;-64
2023/01/21 09:15:37;;;;;;;;;;;-0.40;99.90;;;;;;5028206;28;19920;-62
2023/01/21 09:18:03;;;;;;;;;;;-0.30;99.90;;;;;;5025227;28;20283;-64
2023/01/21 09:20:28;;;;;;;;;;;-0.30;99.90;;;;;;5026764;28;19924;-63
2023/01/21 09:22:54;;;;;;;;;;;-0.20;99.90;;;;;;5026674;28;20322;-63
2023/01/21 09:25:19;;;;;;;;;;;-0.10;99.90;;;;;;5025794;28;20426;-64
2023/01/21 09:27:45;;;;;;;;;;;-0.10;99.90;;;;;;5023952;28;20274;-64
2023/01/21 09:30:10;;;;;;;;;;;0.00;99.90;;;;;;5023932;28;19948;-64
2023/01/21 09:32:36;;;;;;;;;;;0.10;99.90;;;;;;5026088;28;19921;-62
2023/01/21 09:35:01;;;;;;;;;;;0.20;99.90;;;;;;5023989;28;20024;-64
2023/01/21 09:37:26;;;;;;;;;;;0.20;99.90;;;;;;5027621;28;19983;-62
2023/01/21 09:39:52;;;;;;;;;;;0.30;99.90;;;;;;5024266;28;19916;-63
2023/01/21 09:42:20;;;;;;;;;;;0.40;99.90;;;;;;5026966;28;20379;-62
2023/01/21 09:44:47;;;;;;;;;;;0.40;99.90;;;;;;5028603;28;19913;-63
2023/01/21 09:47:24;;;;;;;;;;;0.40;99.90;;;;;;5029647;28;19913;-64
2023/01/21 09:49:50;;;;;;;;;;;0.50;99.90;;;;;;5020336;28;19945;-63
2023/01/21 09:52:15;;;;;;;;;;;0.50;99.90;;;;;;5026719;28;19951;-64
2023/01/21 09:54:41;;;;;;;;;;;0.50;99.90;;;;;;5026337;28;19957;-64
2023/01/21 09:57:21;;;;;;;;;;;0.50;99.90;;;;;;5026777;28;20605;-62
2023/01/21 09:59:55;;;;;;;;;;;0.50;99.90;;;;;;5022485;28;19925;-64
2023/01/21 10:02:21;;;;;;;;;;;0.50;99.90;;;;;;5026630;28;19917;-63
2023/01/21 10:04:48;;;;;;;;;;;0.60;99.90;;;;;;5028597;28;20003;-62
2023/01/21 10:07:16;;;;;;;;;;;0.60;99.90;;;;;;5029771;28;19917;-64
2023/01/21 10:09:48;;;;;;;;;;;0.70;99.90;;;;;;5023120;28;19953;-64
2023/01/21 10:12:23;;;;;;;;;;;0.80;99.90;;;;;;5027176;28;19920;-63
2023/01/21 10:14:59;;;;;;;;;;;0.90;99.90;;;;;;5021900;28;19924;-63
2023/01/21 10:17:24;;;;;;;;;;;0.90;99.90;;;;;;5028278;28;21118;-64
2023/01/21 10:19:51;;;;;;;;;;;0.90;99.90;;;;;;5018127;28;19988;-66
2023/01/21 10:22:23;;;;;;;;;;;0.90;99.90;;;;;;5024301;28;19984;-63
2023/01/21 10:24:52;;;;;;;;;;;0.90;99.90;;;;;;5023913;28;20493;-62
2023/01/21 10:27:19;;;;;;;;;;;0.90;99.90;;;;;;5025234;28;19917;-62
2023/01/21 10:29:46;;;;;;;;;;;1.00;99.90;;;;;;5023737;28;19917;-63
2023/01/21 10:32:14;;;;;;;;;;;1.00;99.90;;;;;;5024799;28;19921;-67
2023/01/21 10:34:49;;;;;;;;;;;1.00;99.90;;;;;;5023865;28;19913;-63
2023/01/21 10:37:26;;;;;;;;;;;1.00;99.90;;;;;;5028518;28;20284;-62
2023/01/21 10:40:01;;;;;;;;;;;1.00;99.90;;;;;;5027102;28;20315;-63
2023/01/21 10:42:32;;;;;;;;;;;1.00;99.90;;;;;;5026188;28;19921;-62
2023/01/21 10:45:10;;;;;;;;;;;1.00;99.90;;;;;;5023187;28;19913;-63
2023/01/21 10:47:42;;;;;;;;;;;0.90;99.90;;;;;;5044167;23;19924;-83
2023/01/21 10:50:26;;;;;;;;;;;1.00;99.90;;;;;;5042100;28;20050;-81
2023/01/21 10:52:56;;;;;;;;;;;1.00;99.90;;;;;;5037712;28;20354;-84
2023/01/21 10:55:39;;;;;;;;;;;1.00;99.90;;;;;;5035302;28;20421;-83
2023/01/21 10:58:10;;;;;;;;;;;1.00;99.90;;;;;;5014097;28;20010;-86
2023/01/21 11:00:43;;;;;;;;;;;1.00;99.90;;;;;;5035791;28;19916;-87
2023/01/21 11:03:15;;;;;;;;;;;0.90;99.90;;;;;;5022506;28;19917;-85
2023/01/21 11:05:40;;;;;;;;;;;1.00;99.90;;;;;;5023686;28;19968;-85
2023/01/21 11:08:07;;;;;;;;;;;1.00;99.90;;;;;;5024118;28;19909;-85
2023/01/21 11:10:32;;;;;;;;;;;1.00;99.90;;;;;;5022615;28;19997;-85
2023/01/21 11:13:01;;;;;;;;;;;1.10;99.90;;;;;;5022018;28;19924;-85
2023/01/21 11:15:29;;;;;;;;;;;1.10;99.90;;;;;;5037129;28;19916;-85
2023/01/21 11:17:57;;;;;;;;;;;1.10;99.90;;;;;;5017938;28;19914;-86
2023/01/21 11:20:32;;;;;;;;;;;1.10;99.90;;;;;;5020161;28;20363;-84
2023/01/21 11:22:57;;;;;;;;;;;1.10;99.90;;;;;;5014956;28;19925;-81
2023/01/21 11:25:37;;;;;;;;;;;1.20;99.90;;;;;;5014855;28;19918;-82
2023/01/21 11:28:03;;;;;;;;;;;1.20;99.90;;;;;;5035261;28;20257;-80
2023/01/21 11:30:33;;;;;;;;;;;1.20;99.90;;;;;;5017097;28;19920;-81
2023/01/21 11:33:12;;;;;;;;;;;1.30;99.90;;;;;;5017007;28;19916;-81
2023/01/21 11:35:38;;;;;;;;;;;1.30;99.90;;;;;;5013598;28;19918;-80
2023/01/21 11:38:04;;;;;;;;;;;1.30;99.90;;;;;;5015904;28;20401;-82
2023/01/21 11:40:30;;;;;;;;;;;1.40;99.90;;;;;;5024914;28;19918;-82
2023/01/21 11:42:56;;;;;;;;;;;1.40;99.90;;;;;;5019032;28;19921;-79
2023/01/21 11:45:26;;;;;;;;;;;1.40;99.90;;;;;;5017846;28;19917;-80
2023/01/21 11:47:52;;;;;;;;;;;1.40;99.90;;;;;;5023614;28;19909;-81
2023/01/21 11:50:18;;;;;;;;;;;1.40;99.90;;;;;;5017537;28;19939;-81
2023/01/21 11:53:04;;;;;;;;;;;1.50;99.90;;;;;;5016987;28;19914;-79
2023/01/21 11:55:30;;;;;;;;;;;1.50;99.90;;;;;;5018466;28;19956;-81
2023/01/21 11:57:56;;;;;;;;;;;1.50;99.90;;;;;;5016985;28;19904;-78
2023/01/21 12:00:23;;;;;;;;;;;1.50;99.90;;;;;;5018573;28;19940;-85
2023/01/21 12:02:54;;;;;;;;;;;1.50;99.90;;;;;;5012964;28;19921;-84
2023/01/21 12:05:20;;;;;;;;;;;1.50;99.90;;;;;;5025811;28;19921;-84
2023/01/21 12:07:48;;;;;;;;;;;1.60;99.90;;;;;;5019085;28;20001;-81
2023/01/21 12:10:25;;;;;;;;;;;1.60;99.90;;;;;;5016567;28;19913;-81
2023/01/21 12:12:50;;;;;;;;;;;1.70;99.90;;;;;;5017131;28;19953;-81
2023/01/21 12:15:19;;;;;;;;;;;1.60;99.90;;;;;;5019793;28;19914;-81
2023/01/21 12:17:58;;;;;;;;;;;1.70;99.90;;;;;;5022296;28;19948;-82
2023/01/21 12:20:32;;;;;;;;;;;1.80;99.90;;;;;;5023871;28;20375;-81
2023/01/21 12:23:01;;;;;;;;;;;1.80;99.90;;;;;;5021396;28;20027;-82
2023/01/21 12:25:39;;;;;;;;;;;1.80;99.90;;;;;;5021389;28;20241;-82
2023/01/21 12:28:12;;;;;;;;;;;1.90;99.90;;;;;;5018690;28;19902;-81
2023/01/21 12:30:45;;;;;;;;;;;1.90;99.90;;;;;;5022992;28;19929;-81
2023/01/21 12:33:33;;;;;;;;;;;1.90;99.90;;;;;;5025199;28;19925;-82
2023/01/21 12:36:03;;;;;;;;;;;2.00;99.90;;;;;;5022820;28;19935;-82
2023/01/21 12:38:32;;;;;;;;;;;2.00;99.90;;;;;;5021224;28;19913;-82
2023/01/21 12:41:00;;;;;;;;;;;2.10;99.90;;;;;;5019280;28;19917;-82
2023/01/21 12:43:49;;;;;;;;;;;2.10;99.90;;;;;;5022381;28;19937;-81
2023/01/21 12:46:20;;;;;;;;;;;2.20;99.90;;;;;;5014214;28;19948;-81
2023/01/21 12:48:58;;;;;;;;;;;2.20;99.90;;;;;;5016336;28;20357;-81
2023/01/21 12:51:32;;;;;;;;;;;2.20;99.90;;;;;;5019825;28;19924;-81
2023/01/21 12:54:24;;;;;;;;;;;2.20;99.90;;;;;;5017078;28;20013;-79
2023/01/21 12:56:56;;;;;;;;;;;2.30;99.90;;;;;;4988369;28;19918;-81
2023/01/21 12:59:30;;;;;;;;;;;2.20;99.90;;;;;;5019840;28;20020;-82
2023/01/21 13:01:56;;;;;;;;;;;2.30;99.90;;;;;;5020004;28;19960;-81
2023/01/21 13:04:39;;;;;;;;;;;2.30;99.90;;;;;;5020962;28;19917;-81
2023/01/21 13:07:34;;;;;;;;;;;2.30;99.90;;;;;;5020815;28;19917;-81
2023/01/21 13:10:18;;;;;;;;;;;2.30;99.90;;;;;;4967142;28;20082;-82
2023/01/21 13:12:48;;;;;;;;;;;2.30;99.90;;;;;;5042390;28;19928;-82
2023/01/21 13:15:18;;;;;;;;;;;2.40;99.90;;;;;;5021969;28;19918;-82
2023/01/21 13:17:48;;;;;;;;;;;2.40;99.90;;;;;;5018173;28;19925;-82
2023/01/21 13:20:15;;;;;;;;;;;2.50;99.90;;;;;;5020076;28;19905;-82
2023/01/21 13:22:47;;;;;;;;;;;2.40;99.90;;;;;;5029106;28;19921;-82
2023/01/21 13:25:25;;;;;;;;;;;2.30;99.90;;;;;;5034329;28;19917;-83
2023/01/21 13:27:51;;;;;;;;;;;2.40;99.90;;;;;;5020312;28;19940;-82
2023/01/21 13:30:29;;;;;;;;;;;2.40;99.90;;;;;;5013248;28;19918;-82
2023/01/21 13:33:11;;;;;;;;;;;2.40;99.90;;;;;;5036449;28;19973;-83
2023/01/21 13:35:41;;;;;;;;;;;2.40;99.90;;;;;;5039631;28;19981;-83
2023/01/21 13:38:26;;;;;;;;;;;2.40;99.90;;;;;;5019940;28;19916;-82
2023/01/21 13:40:57;;;;;;;;;;;2.50;99.90;;;;;;5022781;28;19913;-82
2023/01/21 13:43:31;;;;;;;;;;;2.50;99.90;;;;;;5025165;28;19918;-82
2023/01/21 13:46:12;;;;;;;;;;;2.40;99.90;;;;;;5026020;28;20280;-83
2023/01/21 13:48:44;;;;;;;;;;;2.40;99.90;;;;;;5036754;28;19909;-83
2023/01/21 13:51:09;;;;;;;;;;;2.40;99.90;;;;;;5027197;28;19913;-82
2023/01/21 13:53:54;;;;;;;;;;;2.30;99.90;;;;;;5021745;28;19988;-82
2023/01/21 13:56:27;;;;;;;;;;;2.30;99.90;;;;;;5015270;28;19977;-83
2023/01/21 13:58:57;;;;;;;;;;;2.30;99.90;;;;;;5021007;28;19939;-82
2023/01/21 14:01:26;;;;;;;;;;;2.30;99.90;;;;;;5020835;28;19960;-80
2023/01/21 14:04:14;;;;;;;;;;;2.30;99.90;;;;;;5020179;28;19922;-82
2023/01/21 14:06:52;;;;;;;;;;;2.40;99.90;;;;;;5036112;28;20001;-82
2023/01/21 14:09:21;;;;;;;;;;;2.40;99.90;;;;;;5038402;28;19920;-82
2023/01/21 14:11:47;;;;;;;;;;;2.30;99.90;;;;;;5022172;28;19925;-82
2023/01/21 14:14:18;;;;;;;;;;;2.30;99.90;;;;;;5021947;28;19917;-81
2023/01/21 14:16:58;;;;;;;;;;;2.30;99.90;;;;;;5019896;28;19913;-82
2023/01/21 14:19:26;;;;;;;;;;;2.30;99.90;;;;;;5018319;28;19918;-82
2023/01/21 14:22:13;;;;;;;;;;;2.30;99.90;;;;;;5036875;28;19916;-82
2023/01/21 14:24:53;;;;;;;;;;;2.30;99.90;;;;;;5038656;28;19948;-82
2023/01/21 14:27:24;;;;;;;;;;;2.30;99.90;;;;;;5020056;28;19902;-83
2023/01/21 14:29:52;;;;;;;;;;;2.30;99.90;;;;;;5020250;28;19918;-82
2023/01/21 14:32:21;;;;;;;;;;;2.20;99.90;;;;;;5023654;28;19979;-82
2023/01/21 14:34:52;;;;;;;;;;;2.20;99.90;;;;;;5038488;28;19941;-81
2023/01/21 14:37:29;;;;;;;;;;;2.20;99.90;;;;;;5021657;28;19913;-83